^^
Station Historical Data
 
Daily Summary for January 19, 2019 Units:  English    Metric   Both
« Previous Day
Next Day »
Daily Weekly Monthly Yearly Custom
  Current: High: Low: Average:
Temperature: 54.8 °F TemperatureF °F 42.2 °F 45.9 °F
Dew Point: 54.2 °F DewpointF °F 41.2 °F 45.2 °F
Humidity: 98% Humidity% 96% 97%
Wind Speed: 2.6mph WindSpeedMPHmph 0.0mph 0.9mph
Wind Gust: 4.0mph WindSpeedGustMPHmph - -
WindSSE - - SE
Pressure: 29.02 in PressureIn in 29.02 in -
Precipitation: 0.09 in      
Historical Graphs
 
 
Tabular Data for January 19, 2019
Time Temperature Dew Point Pressure Wind Wind Speed Wind Gust Humidity Rainfall Rate (Hourly) solar Conditions
TemperatureF °F DewpointF °F PressureIn in Calm     Humidity% HourlyPrecipIn in SolarRadiationWatts/m^2 W/m2 Conditions
00:00 42.4 °F 41.3 °F 29.40 in Calm     96% 0.00 in 0.00 W/m2 RA
00:05 42.3 °F 41.2 °F 29.40 in Calm     96% 0.00 in 0.00 W/m2 RA
00:10 42.4 °F 41.3 °F 29.40 in Calm     96% 0.00 in 0.00 W/m2 CLR
00:15 42.4 °F 41.3 °F 29.39 in Calm     96% 0.00 in 0.00 W/m2 CLR
00:20 42.4 °F 41.3 °F 29.39 in Calm     96% 0.00 in 0.00 W/m2 CLR
00:25 42.4 °F 41.3 °F 29.39 in Calm     96% 0.00 in 0.00 W/m2 CLR
00:30 42.4 °F 41.6 °F 29.39 in Calm     97% 0.00 in 0.00 W/m2 CLR
00:35 42.4 °F 41.6 °F 29.39 in Calm     97% 0.00 in 0.00 W/m2 CLR
00:40 42.4 °F 41.6 °F 29.39 in Calm     97% 0.00 in 0.00 W/m2 CLR
00:45 42.5 °F 41.7 °F 29.39 in Calm     97% 0.00 in 0.00 W/m2 CLR
00:50 42.5 °F 41.7 °F 29.38 in Calm     97% 0.00 in 0.00 W/m2 CLR
00:55 42.5 °F 41.7 °F 29.38 in South 0.9 mph 1.1 mph 97% 0.00 in 0.00 W/m2 CLR
01:00 42.7 °F 41.9 °F 29.38 in SE 0.8 mph 2.0 mph 97% 0.00 in 0.00 W/m2 CLR
01:05 42.8 °F 42.0 °F 29.38 in East 0.4 mph 2.3 mph 97% 0.00 in 0.00 W/m2 CLR
01:10 42.8 °F 42.0 °F 29.38 in ENE 0.6 mph 1.1 mph 97% 0.00 in 0.00 W/m2 CLR
01:15 42.9 °F 42.1 °F 29.38 in Calm     97% 0.00 in 0.00 W/m2 CLR
01:20 42.9 °F 42.1 °F 29.38 in Calm     97% 0.00 in 0.00 W/m2 CLR
01:25 43.0 °F 42.2 °F 29.38 in ENE 0.1 mph 1.1 mph 97% 0.00 in 0.00 W/m2 CLR
01:30 43.0 °F 42.2 °F 29.37 in Calm   1.0 mph 97% 0.00 in 0.00 W/m2 CLR
01:35 43.1 °F 42.3 °F 29.37 in Calm     97% 0.00 in 0.00 W/m2 CLR
01:40 43.1 °F 42.3 °F 29.37 in Calm     97% 0.00 in 0.00 W/m2 CLR
01:45 43.2 °F 42.4 °F 29.37 in Calm     97% 0.00 in 0.00 W/m2 CLR
01:50 43.2 °F 42.4 °F 29.37 in ENE 0.1 mph 1.1 mph 97% 0.00 in 0.00 W/m2 CLR
01:55 43.2 °F 42.4 °F 29.36 in ENE 0.1 mph 1.1 mph 97% 0.00 in 0.00 W/m2 CLR
02:00 43.1 °F 42.3 °F 29.36 in Calm   1.0 mph 97% 0.00 in 0.00 W/m2 CLR
02:05 43.1 °F 42.3 °F 29.36 in Calm     97% 0.00 in 0.00 W/m2 CLR
02:10 43.1 °F 42.3 °F 29.36 in Calm     97% 0.00 in 0.00 W/m2 CLR
02:15 43.1 °F 42.3 °F 29.36 in Calm     97% 0.00 in 0.00 W/m2 CLR
02:20 42.9 °F 42.1 °F 29.36 in South 1.6 mph 3.5 mph 97% 0.00 in 0.00 W/m2 CLR
02:25 42.8 °F 42.0 °F 29.37 in South 0.2 mph 1.1 mph 97% 0.00 in 0.00 W/m2 CLR
02:30 42.8 °F 42.0 °F 29.37 in Calm     97% 0.00 in 0.00 W/m2 CLR
02:35 42.6 °F 41.8 °F 29.37 in Calm     97% 0.00 in 0.00 W/m2 CLR
02:40 42.5 °F 41.7 °F 29.37 in South 0.2 mph 1.1 mph 97% 0.00 in 0.00 W/m2 CLR
02:45 42.5 °F 41.7 °F 29.36 in Calm     97% 0.00 in 0.00 W/m2 CLR
02:50 42.3 °F 41.5 °F 29.36 in SW 0.4 mph 1.1 mph 97% 0.00 in 0.00 W/m2 CLR
02:55 42.3 °F 41.5 °F 29.36 in SE 0.3 mph 2.3 mph 97% 0.00 in 0.00 W/m2 CLR
03:00 42.2 °F 41.4 °F 29.36 in East 1.2 mph 3.5 mph 97% 0.00 in 0.00 W/m2 CLR
03:05 42.2 °F 41.4 °F 29.35 in East 1.7 mph 3.5 mph 97% 0.00 in 0.00 W/m2 CLR
03:10 42.2 °F 41.4 °F 29.35 in East 1.6 mph 3.5 mph 97% 0.00 in 0.00 W/m2 CLR
03:15 42.2 °F 41.4 °F 29.35 in East 0.8 mph 2.3 mph 97% 0.00 in 0.00 W/m2 CLR
03:20 42.3 °F 41.5 °F 29.35 in ENE 2.2 mph 4.6 mph 97% 0.00 in 0.00 W/m2 CLR
03:25 42.3 °F 41.5 °F 29.35 in ENE 1.1 mph 2.3 mph 97% 0.00 in 0.00 W/m2 CLR
03:30 42.4 °F 41.6 °F 29.34 in ENE 1.4 mph 3.5 mph 97% 0.00 in 0.00 W/m2 CLR
03:35 42.4 °F 41.6 °F 29.34 in ENE 0.4 mph 2.0 mph 97% 0.00 in 0.00 W/m2 CLR
03:40 42.4 °F 41.6 °F 29.34 in Calm     97% 0.00 in 0.00 W/m2 CLR
03:45 42.4 °F 41.6 °F 29.34 in Calm     97% 0.00 in 0.00 W/m2 CLR
03:50 42.5 °F 41.7 °F 29.34 in Calm     97% 0.00 in 0.00 W/m2 CLR
03:55 42.5 °F 41.7 °F 29.35 in Calm     97% 0.00 in 0.00 W/m2 CLR
04:00 42.5 °F 41.7 °F 29.35 in SSE 1.0 mph 4.0 mph 97% 0.00 in 0.00 W/m2 CLR
04:05 42.5 °F 41.7 °F 29.35 in SSW 1.0 mph 2.0 mph 97% 0.00 in 0.00 W/m2 CLR
04:10 42.6 °F 41.8 °F 29.35 in SSW 1.2 mph 3.5 mph 97% 0.00 in 0.00 W/m2 CLR
04:15 42.6 °F 41.8 °F 29.35 in Calm     97% 0.00 in 0.00 W/m2 CLR
04:20 42.6 °F 41.8 °F 29.34 in Calm     97% 0.00 in 0.00 W/m2 CLR
04:25 42.6 °F 41.8 °F 29.34 in SE 0.6 mph 1.1 mph 97% 0.00 in 0.00 W/m2 CLR
04:30 42.6 °F 41.8 °F 29.34 in Calm     97% 0.00 in 0.00 W/m2 CLR
04:35 42.6 °F 41.8 °F 29.34 in Calm     97% 0.00 in 0.00 W/m2 CLR
04:40 42.5 °F 41.7 °F 29.33 in Calm   1.1 mph 97% 0.00 in 0.00 W/m2 CLR
04:45 42.5 °F 41.7 °F 29.33 in Calm     97% 0.00 in 0.00 W/m2 CLR
04:50 42.5 °F 41.7 °F 29.33 in Calm     97% 0.00 in 0.00 W/m2 CLR
04:55 42.5 °F 41.7 °F 29.32 in Calm     97% 0.00 in 0.00 W/m2 CLR
05:00 42.5 °F 41.7 °F 29.32 in Calm     97% 0.00 in 0.00 W/m2 CLR
05:05 42.5 °F 41.7 °F 29.33 in Calm     97% 0.00 in 0.00 W/m2 CLR
05:10 42.5 °F 41.7 °F 29.33 in Calm     97% 0.00 in 0.00 W/m2 CLR
05:15 42.6 °F 41.8 °F 29.33 in SE 0.3 mph 1.1 mph 97% 0.00 in 0.00 W/m2 CLR
05:20 42.6 °F 41.8 °F 29.33 in Calm     97% 0.00 in 0.00 W/m2 CLR
05:25 42.7 °F 41.9 °F 29.33 in Calm     97% 0.00 in 0.00 W/m2 CLR
05:30 42.7 °F 41.9 °F 29.33 in Calm     97% 0.00 in 0.00 W/m2 CLR
05:35 42.7 °F 41.9 °F 29.33 in Calm     97% 0.00 in 0.00 W/m2 CLR
05:40 42.7 °F 41.9 °F 29.32 in Calm     97% 0.00 in 0.00 W/m2 CLR
05:45 42.7 °F 41.9 °F 29.32 in Calm     97% 0.00 in 0.00 W/m2 CLR
05:50 42.8 °F 42.0 °F 29.32 in Calm     97% 0.00 in 0.00 W/m2 CLR
05:55 42.8 °F 42.0 °F 29.32 in South 0.3 mph 1.1 mph 97% 0.00 in 0.00 W/m2 CLR
06:00 42.8 °F 42.0 °F 29.32 in Calm     97% 0.00 in 0.00 W/m2 CLR
06:05 42.8 °F 42.0 °F 29.32 in Calm     97% 0.00 in 0.00 W/m2 CLR
06:10 42.9 °F 42.1 °F 29.32 in Calm   1.1 mph 97% 0.00 in 0.00 W/m2 CLR
06:15 42.9 °F 42.1 °F 29.32 in Calm     97% 0.00 in 0.00 W/m2 CLR
06:20 42.9 °F 42.1 °F 29.31 in Calm     97% 0.00 in 0.00 W/m2 CLR
06:25 43.0 °F 42.2 °F 29.31 in South 0.1 mph 1.1 mph 97% 0.00 in 0.00 W/m2 CLR
06:30 43.0 °F 42.2 °F 29.30 in Calm     97% 0.00 in 0.00 W/m2 CLR
06:35 43.1 °F 42.3 °F 29.30 in Calm     97% 0.00 in 0.00 W/m2 CLR
06:40 43.1 °F 42.3 °F 29.30 in SE 0.3 mph 1.1 mph 97% 0.00 in 0.00 W/m2 CLR
06:45 43.2 °F 42.4 °F 29.30 in SE 0.1 mph 1.1 mph 97% 0.00 in 0.00 W/m2 CLR
06:50 43.2 °F 42.4 °F 29.30 in Calm     97% 0.00 in 0.00 W/m2 CLR
06:55 43.3 °F 42.5 °F 29.30 in NNE 0.9 mph 3.5 mph 97% 0.00 in 0.00 W/m2 CLR
07:00 43.3 °F 42.5 °F 29.30 in Calm   3.0 mph 97% 0.00 in 0.00 W/m2 CLR
07:05 43.4 °F 42.6 °F 29.31 in Calm     97% 0.00 in 0.00 W/m2 CLR
07:10 43.5 °F 42.7 °F 29.30 in Calm     97% 0.00 in 0.00 W/m2 CLR
07:15 43.6 °F 42.8 °F 29.31 in ENE 0.7 mph 2.3 mph 97% 0.00 in 0.00 W/m2 CLR
07:20 43.6 °F 42.8 °F 29.31 in NE 1.2 mph 2.3 mph 97% 0.00 in 0.00 W/m2 CLR
07:25 43.7 °F 42.9 °F 29.31 in Calm   1.1 mph 97% 0.00 in 0.00 W/m2 CLR
07:30 43.8 °F 43.0 °F 29.30 in SE 0.3 mph 5.0 mph 97% 0.00 in 0.00 W/m2 CLR
07:35 43.9 °F 43.4 °F 29.30 in ENE 1.1 mph 2.3 mph 98% 0.00 in 0.00 W/m2 CLR
07:40 44.0 °F 43.2 °F 29.31 in Calm     97% 0.00 in 0.00 W/m2 CLR
07:45 44.0 °F 43.2 °F 29.31 in Calm     97% 0.00 in 0.00 W/m2 CLR
07:50 44.1 °F 43.3 °F 29.30 in ESE 0.8 mph 1.1 mph 97% 0.00 in 0.00 W/m2 CLR
07:55 44.2 °F 43.4 °F 29.30 in Calm     97% 0.00 in 5.00 W/m2 CLR
08:00 44.3 °F 43.5 °F 29.30 in East 0.3 mph 2.3 mph 97% 0.00 in 9.00 W/m2 CLR
08:05 44.4 °F 43.6 °F 29.29 in ESE 1.4 mph 3.5 mph 97% 0.00 in 9.00 W/m2 CLR
08:10 44.5 °F 43.7 °F 29.29 in ESE 0.2 mph 2.0 mph 97% 0.00 in 11.00 W/m2 CLR
08:15 44.5 °F 43.7 °F 29.29 in East 0.1 mph 1.1 mph 97% 0.00 in 9.00 W/m2 CLR
08:20 44.6 °F 43.8 °F 29.29 in Calm     97% 0.00 in 7.00 W/m2 CLR
08:25 44.6 °F 43.8 °F 29.29 in ESE 0.7 mph 2.3 mph 97% 0.00 in 14.00 W/m2 CLR
08:30 44.7 °F 43.9 °F 29.29 in ESE 0.8 mph 2.3 mph 97% 0.00 in 12.00 W/m2 CLR
08:35 44.7 °F 43.9 °F 29.28 in East 1.8 mph 3.5 mph 97% 0.00 in 21.00 W/m2 CLR
08:40 44.8 °F 44.0 °F 29.29 in SE 0.3 mph 2.3 mph 97% 0.00 in 16.00 W/m2 CLR
08:45 44.9 °F 44.1 °F 29.28 in ENE 0.7 mph 3.0 mph 97% 0.00 in 33.00 W/m2 CLR
08:50 45.0 °F 44.5 °F 29.29 in NE 1.5 mph 4.6 mph 98% 0.00 in 16.00 W/m2 CLR
08:55 45.0 °F 44.5 °F 29.29 in ENE 0.9 mph 2.3 mph 98% 0.00 in 11.00 W/m2 CLR
09:00 45.1 °F 44.6 °F 29.29 in ENE 0.7 mph 2.3 mph 98% 0.00 in 9.00 W/m2 CLR
09:05 45.1 °F 44.6 °F 29.29 in ESE 0.8 mph 2.3 mph 98% 0.00 in 7.00 W/m2 CLR
09:10 45.2 °F 44.7 °F 29.29 in ESE 1.5 mph 4.6 mph 98% 0.00 in 9.00 W/m2 CLR
09:15 45.3 °F 44.8 °F 29.29 in Calm     98% 0.00 in 11.00 W/m2 CLR
09:20 45.3 °F 44.8 °F 29.30 in ESE 0.4 mph 2.3 mph 98% 0.00 in 12.00 W/m2 CLR
09:25 45.4 °F 44.9 °F 29.30 in East 0.3 mph 1.1 mph 98% 0.00 in 14.00 W/m2 CLR
09:30 45.5 °F 45.0 °F 29.30 in SE 0.1 mph 3.0 mph 98% 0.00 in 18.00 W/m2 CLR
09:35 45.6 °F 45.1 °F 29.30 in ESE 0.4 mph 2.3 mph 98% 0.00 in 28.00 W/m2 CLR
09:40 45.8 °F 45.3 °F 29.30 in ESE 0.4 mph 5.0 mph 98% 0.00 in 47.00 W/m2 CLR
09:45 45.9 °F 45.4 °F 29.30 in SE 0.4 mph 3.5 mph 98% 0.00 in 35.00 W/m2 CLR
09:50 46.0 °F 45.5 °F 29.30 in SSE 0.2 mph 1.1 mph 98% 0.00 in 25.00 W/m2 CLR
09:55 46.1 °F 45.6 °F 29.30 in SE 0.8 mph 2.3 mph 98% 0.00 in 53.00 W/m2 CLR
10:00 46.1 °F 45.6 °F 29.29 in SE 0.4 mph 1.1 mph 98% 0.00 in 35.00 W/m2 CLR
10:05 46.2 °F 45.7 °F 29.29 in ESE 0.9 mph 2.3 mph 98% 0.00 in 67.00 W/m2 CLR
10:10 46.3 °F 45.8 °F 29.29 in SE 2.7 mph 5.8 mph 98% 0.00 in 76.00 W/m2 CLR
10:15 46.3 °F 45.8 °F 29.29 in SE 1.6 mph 3.5 mph 98% 0.00 in 70.00 W/m2 CLR
10:20 46.4 °F 45.9 °F 29.28 in SSE 1.0 mph 3.0 mph 98% 0.00 in 46.00 W/m2 CLR
10:25 46.5 °F 46.0 °F 29.28 in SSE 0.7 mph 2.3 mph 98% 0.00 in 56.00 W/m2 CLR
10:30 46.6 °F 46.1 °F 29.28 in SE 1.5 mph 4.0 mph 98% 0.00 in 49.00 W/m2 CLR
10:35 46.7 °F 46.2 °F 29.28 in SE 0.8 mph 3.5 mph 98% 0.00 in 116.00 W/m2 CLR
10:40 46.7 °F 46.2 °F 29.27 in SE 0.7 mph 2.3 mph 98% 0.00 in 95.00 W/m2 CLR
10:45 46.9 °F 46.4 °F 29.27 in East 0.3 mph 1.1 mph 98% 0.00 in 81.00 W/m2 CLR
10:50 46.9 °F 46.4 °F 29.27 in SE 4.2 mph 4.6 mph 98% 0.00 in 88.00 W/m2 CLR
10:55 47.0 °F 46.5 °F 29.26 in ESE 2.1 mph 3.5 mph 98% 0.00 in 67.00 W/m2 CLR
11:00 47.1 °F 46.6 °F 29.26 in South 0.7 mph 1.1 mph 98% 0.00 in 67.00 W/m2 CLR
11:05 47.2 °F 46.7 °F 29.26 in South 2.3 mph 5.0 mph 98% 0.00 in 88.00 W/m2 CLR
11:10 47.3 °F 46.8 °F 29.26 in ESE 1.9 mph 3.5 mph 98% 0.00 in 95.00 W/m2 CLR
11:15 47.4 °F 46.9 °F 29.26 in ESE 0.5 mph 2.3 mph 98% 0.00 in 49.00 W/m2 CLR
11:20 47.5 °F 47.0 °F 29.26 in SE 0.4 mph 2.3 mph 98% 0.00 in 47.00 W/m2 CLR
11:25 47.6 °F 47.1 °F 29.25 in East 0.9 mph 2.3 mph 98% 0.00 in 93.00 W/m2 CLR
11:30 47.7 °F 47.2 °F 29.26 in SSE 1.8 mph 3.5 mph 98% 0.00 in 47.00 W/m2 CLR
11:35 47.8 °F 47.3 °F 29.26 in SSW 0.7 mph 3.5 mph 98% 0.00 in 47.00 W/m2 CLR
11:40 47.9 °F 47.4 °F 29.26 in South 0.4 mph 1.1 mph 98% 0.00 in 49.00 W/m2 CLR
11:45 48.0 °F 47.5 °F 29.25 in SE 0.3 mph 1.1 mph 98% 0.00 in 118.00 W/m2 CLR
11:50 48.2 °F 47.7 °F 29.25 in SSE 0.9 mph 2.0 mph 98% 0.00 in 42.00 W/m2 CLR
11:55 48.3 °F 47.8 °F 29.25 in SE 1.0 mph 3.0 mph 98% 0.00 in 84.00 W/m2 CLR
12:00 48.5 °F 48.0 °F 29.24 in Calm   1.1 mph 98% 0.00 in 72.00 W/m2 CLR
12:05 48.6 °F 48.1 °F 29.23 in South 0.6 mph 2.3 mph 98% 0.00 in 118.00 W/m2 CLR
12:10 48.8 °F 48.3 °F 29.23 in South 0.4 mph 2.3 mph 98% 0.00 in 88.00 W/m2 CLR
12:15 49.0 °F 48.5 °F 29.22 in South 0.7 mph 2.3 mph 98% 0.00 in 58.00 W/m2 CLR
12:20 49.1 °F 48.6 °F 29.22 in Calm   2.0 mph 98% 0.00 in 113.00 W/m2 CLR
12:25 49.2 °F 48.7 °F 29.21 in ESE 0.9 mph 3.5 mph 98% 0.00 in 127.00 W/m2 CLR
12:30 49.4 °F 48.9 °F 29.21 in South 0.8 mph 2.3 mph 98% 0.00 in 84.00 W/m2 CLR
12:35 49.5 °F 49.0 °F 29.21 in South 1.1 mph 2.3 mph 98% 0.00 in 84.00 W/m2 CLR
12:40 49.7 °F 49.2 °F 29.20 in SE 1.4 mph 3.5 mph 98% 0.00 in 130.00 W/m2 CLR
12:45 49.8 °F 49.3 °F 29.19 in ESE 1.3 mph 3.5 mph 98% 0.00 in 144.00 W/m2 CLR
12:50 50.0 °F 49.5 °F 29.19 in SSE 1.8 mph 3.5 mph 98% 0.00 in 118.00 W/m2 CLR
12:55 50.2 °F 49.7 °F 29.18 in SE 1.4 mph 2.3 mph 98% 0.00 in 86.00 W/m2 CLR
13:00 50.4 °F 49.9 °F 29.17 in East 1.0 mph 2.3 mph 98% 0.00 in 86.00 W/m2 CLR
13:05 50.5 °F 50.0 °F 29.17 in SSE 0.1 mph 1.1 mph 98% 0.00 in 98.00 W/m2 CLR
13:10 50.7 °F 50.2 °F 29.16 in SSE 0.6 mph 2.3 mph 98% 0.00 in 84.00 W/m2 CLR
13:15 50.8 °F 50.3 °F 29.16 in South 0.1 mph 1.1 mph 98% 0.00 in 77.00 W/m2 CLR
13:20 50.9 °F 50.1 °F 29.15 in SSE 0.5 mph 2.0 mph 97% 0.00 in 63.00 W/m2 CLR
13:25 51.0 °F 50.5 °F 29.15 in South 0.8 mph 2.3 mph 98% 0.00 in 51.00 W/m2 CLR
13:30 51.2 °F 50.4 °F 29.14 in South 0.7 mph 2.3 mph 97% 0.00 in 40.00 W/m2 CLR
13:35 51.4 °F 50.6 °F 29.14 in SE 1.5 mph 3.0 mph 97% 0.00 in 58.00 W/m2 CLR
13:40 51.5 °F 50.7 °F 29.14 in SE 0.7 mph 2.3 mph 97% 0.00 in 62.00 W/m2 CLR
13:45 51.6 °F 50.8 °F 29.13 in South 1.3 mph 11.0 mph 97% 0.00 in 69.00 W/m2 CLR
13:50 51.8 °F 51.0 °F 29.13 in SSE 0.8 mph 2.3 mph 97% 0.00 in 76.00 W/m2 CLR
13:55 52.0 °F 51.2 °F 29.13 in SSE 2.6 mph 4.6 mph 97% 0.00 in 69.00 W/m2 CLR
14:00 52.2 °F 51.4 °F 29.12 in South 1.5 mph 4.0 mph 97% 0.00 in 42.00 W/m2 CLR
14:05 52.3 °F 51.5 °F 29.12 in SSE 2.7 mph 5.8 mph 97% 0.00 in 70.00 W/m2 CLR
14:10 52.5 °F 51.7 °F 29.11 in SE 3.2 mph 6.9 mph 97% 0.00 in 95.00 W/m2 CLR
14:15 52.6 °F 51.8 °F 29.11 in South 2.5 mph 4.6 mph 97% 0.00 in 65.00 W/m2 CLR
14:20 52.7 °F 51.9 °F 29.10 in South 3.3 mph 9.2 mph 97% 0.00 in 54.00 W/m2 CLR
14:25 52.7 °F 51.9 °F 29.10 in SE 3.0 mph 4.6 mph 97% 0.00 in 53.00 W/m2 CLR
14:30 52.8 °F 52.0 °F 29.10 in South 2.4 mph 3.5 mph 97% 0.00 in 60.00 W/m2 CLR
14:35 52.8 °F 52.0 °F 29.09 in South 1.3 mph 3.5 mph 97% 0.00 in 51.00 W/m2 CLR
14:40 52.8 °F 52.0 °F 29.09 in South 3.5 mph 6.9 mph 97% 0.01 in 28.00 W/m2 RA
14:45 52.8 °F 52.0 °F 29.09 in SSW 2.6 mph 5.0 mph 97% 0.02 in 26.00 W/m2 RA
14:50 52.8 °F 52.0 °F 29.09 in SSW 2.3 mph 4.6 mph 97% 0.03 in 35.00 W/m2 RA
14:55 52.9 °F 52.1 °F 29.09 in SSW 4.8 mph 6.9 mph 97% 0.03 in 23.00 W/m2 RA
15:00 52.9 °F 52.1 °F 29.09 in South 3.4 mph 6.9 mph 97% 0.05 in 21.00 W/m2 RA
15:05 52.9 °F 52.1 °F 29.09 in South 3.4 mph 7.0 mph 97% 0.05 in 40.00 W/m2 RA
15:10 53.0 °F 52.2 °F 29.08 in SSW 1.9 mph 6.0 mph 97% 0.06 in 40.00 W/m2 RA
15:15 53.1 °F 52.6 °F 29.08 in SSE 2.9 mph 6.0 mph 98% 0.07 in 58.00 W/m2 RA
15:20 53.2 °F 52.7 °F 29.07 in South 2.4 mph 4.6 mph 98% 0.08 in 65.00 W/m2 RA
15:25 53.3 °F 52.8 °F 29.07 in South 1.2 mph 4.0 mph 98% 0.09 in 42.00 W/m2 RA
15:30 53.4 °F 52.8 °F 29.06 in SSE 2.0 mph 3.5 mph 98% 0.09 in 113.00 W/m2 RA
15:35 53.6 °F 53.0 °F 29.06 in South 3.9 mph 6.9 mph 98% 0.09 in 113.00 W/m2 CLR
15:40 53.8 °F 53.2 °F 29.06 in SE 2.4 mph 3.5 mph 98% 0.08 in 86.00 W/m2 CLR
15:45 54.0 °F 53.4 °F 29.06 in South 2.0 mph 3.5 mph 98% 0.07 in 69.00 W/m2 CLR
15:50 54.0 °F 53.4 °F 29.05 in SSE 3.2 mph 6.9 mph 98% 0.06 in 67.00 W/m2 CLR
15:55 54.1 °F 53.5 °F 29.05 in South 2.3 mph 4.6 mph 98% 0.06 in 69.00 W/m2 CLR
16:00 54.2 °F 53.6 °F 29.04 in SSE 1.2 mph 3.0 mph 98% 0.04 in 67.00 W/m2 CLR
16:05 54.3 °F 53.7 °F 29.04 in SSE 0.9 mph 3.5 mph 98% 0.04 in 58.00 W/m2 CLR
16:10 54.4 °F 53.8 °F 29.03 in ESE 2.6 mph 3.5 mph 98% 0.04 in 67.00 W/m2 CLR
16:15 54.5 °F 53.9 °F 29.03 in SSE 4.0 mph 6.9 mph 98% 0.02 in 84.00 W/m2 CLR
16:20 54.6 °F 54.0 °F 29.03 in South 2.8 mph 4.6 mph 98% 0.01 in 79.00 W/m2 CLR
16:25 54.7 °F 54.1 °F 29.02 in SSE 2.3 mph 3.5 mph 98% 0.00 in 77.00 W/m2 CLR
16:30 54.8 °F 54.2 °F 29.02 in SSE 2.6 mph 4.0 mph 98% 0.00 in 62.00 W/m2 CLR
Mint Hill, North Carolina, USA
Compliments of Weather Underground - 2.5 mb